Time;durP1;ratioP1;P1;durP2;ratioP2;P2;SDS_P1;SDS_P2;PMS_P1;PMS_P2;Temp;Humidity;BMP_temperature;BMP_pressure;BME280_temperature;BME280_humidity;BME280_pressure;Samples;Min_cycle;Max_cycle;Signal;HPM_P1;HPM_P2
2022/08/05 00:00:05;;;;;;;1.25;0.55;;;27.10;52.20;;;;;;5030925;28;20099;-51
2022/08/05 00:02:32;;;;;;;0.45;0.40;;;27.10;52.10;;;;;;5031484;28;20025;-54
2022/08/05 00:04:58;;;;;;;2.13;0.70;;;27.10;52.10;;;;;;5031999;28;20373;-56
2022/08/05 00:07:24;;;;;;;1.42;0.60;;;27.10;52.10;;;;;;5030686;28;20108;-56
2022/08/05 00:09:50;;;;;;;1.05;0.52;;;27.10;52.10;;;;;;5030639;28;20337;-55
2022/08/05 00:12:16;;;;;;;1.27;0.60;;;27.10;52.00;;;;;;5029409;28;20026;-56
2022/08/05 00:14:42;;;;;;;0.77;0.47;;;27.10;52.10;;;;;;5032010;28;20060;-52
2022/08/05 00:17:07;;;;;;;1.23;0.70;;;27.10;52.00;;;;;;5032478;28;20037;-55
2022/08/05 00:19:33;;;;;;;1.55;0.70;;;27.10;52.00;;;;;;5032199;28;20033;-54
2022/08/05 00:22:00;;;;;;;2.17;0.80;;;27.10;52.10;;;;;;5032422;28;20113;-53
2022/08/05 00:24:26;;;;;;;2.35;0.63;;;27.10;52.00;;;;;;5030479;28;20052;-53
2022/08/05 00:26:52;;;;;;;1.10;0.57;;;27.10;52.00;;;;;;5030868;28;20056;-55
2022/08/05 00:29:18;;;;;;;1.70;0.60;;;27.10;51.90;;;;;;5031399;28;20522;-56
2022/08/05 00:31:44;;;;;;;0.90;0.50;;;27.10;51.90;;;;;;5030576;28;20037;-56
2022/08/05 00:34:10;;;;;;;1.25;0.70;;;27.10;51.90;;;;;;5031313;28;20364;-52
2022/08/05 00:36:35;;;;;;;0.90;0.50;;;27.10;51.90;;;;;;5031659;28;20022;-54
2022/08/05 00:39:01;;;;;;;0.85;0.50;;;27.10;51.90;;;;;;5029809;28;20424;-54
2022/08/05 00:41:30;;;;;;;1.48;0.60;;;27.10;51.90;;;;;;5031237;28;20461;-58
2022/08/05 00:43:56;;;;;;;0.80;0.47;;;27.00;51.80;;;;;;5028589;28;20140;-53
2022/08/05 00:46:22;;;;;;;1.40;0.70;;;27.10;51.90;;;;;;5030377;28;20104;-53
2022/08/05 00:48:48;;;;;;;1.27;0.50;;;27.10;52.50;;;;;;5026027;28;20113;-54
2022/08/05 00:51:14;;;;;;;1.58;0.60;;;27.00;51.80;;;;;;5029920;28;20951;-55
2022/08/05 00:53:40;;;;;;;0.98;0.43;;;27.00;51.70;;;;;;5030901;28;20037;-54
2022/08/05 00:56:06;;;;;;;1.98;0.50;;;27.00;51.70;;;;;;5030474;28;20033;-52
2022/08/05 00:58:32;;;;;;;1.65;0.70;;;27.00;51.70;;;;;;5031086;28;20041;-51
2022/08/05 01:00:58;;;;;;;1.00;0.60;;;27.00;51.70;;;;;;5030471;28;20595;-52
2022/08/05 01:03:24;;;;;;;1.23;0.73;;;27.00;51.70;;;;;;5030748;28;20029;-56
2022/08/05 01:05:51;;;;;;;0.80;0.60;;;27.00;51.70;;;;;;5031607;28;20033;-53
2022/08/05 01:08:17;;;;;;;0.93;0.65;;;27.00;51.70;;;;;;5031180;28;20444;-55
2022/08/05 01:10:58;;;;;;;0.65;0.50;;;27.00;51.70;;;;;;5030276;28;20021;-55
2022/08/05 01:13:43;;;;;;;1.23;0.63;;;27.00;51.70;;;;;;5030302;28;20037;-53
2022/08/05 01:16:16;;;;;;;1.48;0.65;;;27.00;51.70;;;;;;5029300;28;20099;-54
2022/08/05 01:18:49;;;;;;;1.65;0.73;;;27.00;51.70;;;;;;5030066;28;20231;-48
2022/08/05 01:21:41;;;;;;;0.93;0.55;;;27.00;51.70;;;;;;5029238;28;20136;-55
2022/08/05 01:24:31;;;;;;;2.17;0.60;;;26.90;51.60;;;;;;5030294;28;20352;-54
2022/08/05 01:27:12;;;;;;;2.20;0.60;;;26.90;51.50;;;;;;5028834;28;20049;-55
2022/08/05 01:29:42;;;;;;;1.63;0.85;;;26.90;51.60;;;;;;5028283;28;20080;-57
2022/08/05 01:32:10;;;;;;;4.50;0.70;;;26.90;51.60;;;;;;5028068;28;20040;-55
2022/08/05 01:34:54;;;;;;;1.52;0.57;;;26.90;51.60;;;;;;5030757;28;20036;-54
2022/08/05 01:37:44;;;;;;;0.82;0.38;;;26.90;51.60;;;;;;5030770;28;20022;-49
2022/08/05 01:40:11;;;;;;;1.20;0.70;;;26.90;51.60;;;;;;5020727;28;20064;-54
2022/08/05 01:42:39;;;;;;;2.15;0.80;;;26.90;51.60;;;;;;5023097;28;20021;-53
2022/08/05 01:45:07;;;;;;;0.75;0.50;;;26.90;51.60;;;;;;5030172;28;20107;-57
2022/08/05 01:47:35;;;;;;;1.10;0.60;;;26.90;52.20;;;;;;5029934;28;20112;-49
2022/08/05 01:50:07;;;;;;;1.13;0.70;;;26.90;51.60;;;;;;5030083;28;20033;-54
2022/08/05 01:52:36;;;;;;;1.60;0.60;;;26.90;52.20;;;;;;5029007;28;20060;-52
2022/08/05 01:55:07;;;;;;;2.92;0.82;;;26.90;51.50;;;;;;5027543;28;20365;-54
2022/08/05 01:57:36;;;;;;;1.30;0.70;;;26.80;51.40;;;;;;5028933;28;21395;-53
2022/08/05 02:00:04;;;;;;;2.05;0.70;;;26.90;51.50;;;;;;5027815;28;20040;-52
2022/08/05 02:02:32;;;;;;;2.25;0.70;;;26.90;51.50;;;;;;5026231;28;20108;-54
2022/08/05 02:05:02;;;;;;;1.65;0.60;;;26.90;51.50;;;;;;5029645;28;20044;-55
2022/08/05 02:07:29;;;;;;;1.50;0.60;;;26.80;51.40;;;;;;5030213;28;20057;-55
2022/08/05 02:09:55;;;;;;;1.45;0.70;;;26.80;51.40;;;;;;5029322;28;20025;-52
2022/08/05 02:12:33;;;;;;;1.02;0.57;;;26.80;51.40;;;;;;5028538;28;20039;-54
2022/08/05 02:15:24;;;;;;;1.80;0.90;;;26.80;51.40;;;;;;5017155;28;20049;-54
2022/08/05 02:17:56;;;;;;;1.23;0.57;;;26.80;52.00;;;;;;5029187;28;20028;-54
2022/08/05 02:20:26;;;;;;;0.85;0.43;;;26.80;51.40;;;;;;5028866;28;20127;-53
2022/08/05 02:23:01;;;;;;;2.30;0.93;;;26.80;51.50;;;;;;5029381;28;20279;-54
2022/08/05 02:25:36;;;;;;;2.17;0.95;;;26.80;51.40;;;;;;5028368;28;20029;-57
2022/08/05 02:28:03;;;;;;;0.85;0.70;;;26.80;51.50;;;;;;5026917;28;20057;-57
2022/08/05 02:30:36;;;;;;;0.95;0.57;;;26.80;51.40;;;;;;5029262;28;20072;-55
2022/08/05 02:33:04;;;;;;;1.35;0.75;;;26.80;51.50;;;;;;5029892;28;20068;-52
2022/08/05 02:35:33;;;;;;;1.58;0.60;;;26.80;51.40;;;;;;5028573;28;20033;-54
2022/08/05 02:38:00;;;;;;;1.42;0.70;;;26.80;51.40;;;;;;5029103;28;20103;-54
2022/08/05 02:40:27;;;;;;;1.17;0.60;;;26.80;51.40;;;;;;5026678;28;20033;-56
2022/08/05 02:42:55;;;;;;;1.95;0.77;;;26.80;51.40;;;;;;5029289;28;20028;-56
2022/08/05 02:45:22;;;;;;;2.97;0.80;;;26.80;51.50;;;;;;5028578;28;20057;-54
2022/08/05 02:47:51;;;;;;;1.95;0.75;;;26.80;51.40;;;;;;5029604;28;20029;-53
2022/08/05 02:50:17;;;;;;;2.20;0.80;;;26.80;51.50;;;;;;5027030;28;20033;-56
2022/08/05 02:52:45;;;;;;;2.50;1.13;;;26.80;51.50;;;;;;5027798;28;20106;-53
2022/08/05 02:55:12;;;;;;;1.85;0.85;;;26.70;51.40;;;;;;4999615;28;20368;-50
2022/08/05 02:57:39;;;;;;;1.27;0.60;;;26.70;51.40;;;;;;5030261;28;20038;-52
2022/08/05 03:00:07;;;;;;;1.67;0.57;;;26.70;51.40;;;;;;5028437;28;20037;-53
2022/08/05 03:02:39;;;;;;;1.80;0.93;;;26.70;51.40;;;;;;5028672;28;20044;-54
2022/08/05 03:05:08;;;;;;;2.88;0.57;;;26.70;51.40;;;;;;5026407;28;20041;-54
2022/08/05 03:07:35;;;;;;;1.00;0.63;;;26.70;51.50;;;;;;5028815;28;20033;-56
2022/08/05 03:10:02;;;;;;;1.17;0.65;;;26.80;51.50;;;;;;5025620;28;20022;-51
2022/08/05 03:12:38;;;;;;;1.00;0.60;;;26.70;51.40;;;;;;5029315;28;20095;-57
2022/08/05 03:15:07;;;;;;;1.58;0.60;;;26.70;51.50;;;;;;5028203;28;20504;-55
2022/08/05 03:17:33;;;;;;;1.48;0.75;;;26.70;51.50;;;;;;5029352;28;20112;-49
2022/08/05 03:19:59;;;;;;;1.05;0.60;;;26.70;51.50;;;;;;5028384;28;20715;-52
2022/08/05 03:22:25;;;;;;;1.25;0.68;;;26.70;51.50;;;;;;5028941;28;20040;-56
2022/08/05 03:24:52;;;;;;;1.05;0.60;;;26.70;51.50;;;;;;5027101;28;20053;-54
2022/08/05 03:27:19;;;;;;;1.73;0.63;;;26.70;51.50;;;;;;5027690;28;20036;-53
2022/08/05 03:29:45;;;;;;;2.38;0.70;;;26.70;51.50;;;;;;5029155;28;20025;-55
2022/08/05 03:32:14;;;;;;;2.28;0.70;;;26.70;51.50;;;;;;5027402;28;20386;-53
2022/08/05 03:34:43;;;;;;;1.60;0.70;;;26.60;51.40;;;;;;5027186;28;20056;-53
2022/08/05 03:37:09;;;;;;;1.33;0.65;;;26.70;51.50;;;;;;5029137;28;20029;-54
2022/08/05 03:39:35;;;;;;;1.88;0.68;;;26.70;51.50;;;;;;5027913;28;20039;-53
2022/08/05 03:42:01;;;;;;;4.25;0.77;;;26.60;51.50;;;;;;5028154;28;20036;-56
2022/08/05 03:44:27;;;;;;;1.73;0.60;;;26.60;51.50;;;;;;5028874;28;20032;-56
2022/08/05 03:46:52;;;;;;;1.50;0.70;;;26.60;51.50;;;;;;5028821;28;20061;-52
2022/08/05 03:49:18;;;;;;;1.95;0.63;;;26.60;51.50;;;;;;5011387;28;20037;-54
2022/08/05 03:51:47;;;;;;;2.58;0.73;;;26.60;51.60;;;;;;5028717;28;20057;-53
2022/08/05 03:54:22;;;;;;;1.75;0.68;;;26.60;51.50;;;;;;5027885;28;20045;-53
2022/08/05 03:56:49;;;;;;;3.13;0.88;;;26.60;51.60;;;;;;5028127;28;20128;-53
2022/08/05 03:59:32;;;;;;;1.58;0.60;;;26.60;51.70;;;;;;5027184;28;20420;-56
2022/08/05 04:02:00;;;;;;;1.33;0.50;;;26.60;51.60;;;;;;5027947;28;20037;-52
2022/08/05 04:04:28;;;;;;;1.90;0.60;;;26.60;51.70;;;;;;5026720;28;20440;-56
2022/08/05 04:06:54;;;;;;;0.80;0.55;;;26.50;51.70;;;;;;5028614;28;20038;-55
2022/08/05 04:09:21;;;;;;;1.77;0.82;;;26.50;51.60;;;;;;5026906;28;20056;-53
2022/08/05 04:11:47;;;;;;;3.22;0.80;;;26.60;51.70;;;;;;5027942;28;20040;-54
2022/08/05 04:14:14;;;;;;;1.73;0.60;;;26.60;52.30;;;;;;5030181;28;20049;-53
2022/08/05 04:16:40;;;;;;;1.00;0.70;;;26.50;51.60;;;;;;5032165;28;20117;-49
2022/08/05 04:19:10;;;;;;;1.25;0.55;;;26.50;51.60;;;;;;5031687;28;20037;-57
2022/08/05 04:21:36;;;;;;;1.15;0.60;;;26.50;52.30;;;;;;5031840;28;20057;-51
2022/08/05 04:24:03;;;;;;;1.50;0.60;;;26.50;51.70;;;;;;5030333;28;20049;-54
2022/08/05 04:26:29;;;;;;;1.10;0.60;;;26.50;51.70;;;;;;5031946;28;20030;-55
2022/08/05 04:28:54;;;;;;;2.38;0.80;;;26.50;51.80;;;;;;5033384;28;20017;-55
2022/08/05 04:31:20;;;;;;;1.38;0.63;;;26.50;51.80;;;;;;5030167;28;20083;-55
2022/08/05 04:33:46;;;;;;;1.17;0.70;;;26.50;51.80;;;;;;5031117;28;20049;-54
2022/08/05 04:36:13;;;;;;;1.73;0.63;;;26.50;51.80;;;;;;5030241;28;20040;-54
2022/08/05 04:38:41;;;;;;;1.63;0.70;;;26.50;51.80;;;;;;5030847;28;20029;-51
2022/08/05 04:41:07;;;;;;;1.30;0.60;;;26.50;51.80;;;;;;5030182;28;20107;-56
2022/08/05 04:43:33;;;;;;;1.00;0.60;;;26.50;51.80;;;;;;5031220;28;20449;-55
2022/08/05 04:45:59;;;;;;;1.30;0.90;;;26.50;51.80;;;;;;5030790;28;20036;-53
2022/08/05 04:48:25;;;;;;;2.15;0.80;;;26.50;51.80;;;;;;5032055;28;20021;-53
2022/08/05 04:50:51;;;;;;;1.55;0.70;;;26.50;51.80;;;;;;5030251;28;20021;-51
2022/08/05 04:53:18;;;;;;;1.88;0.80;;;26.50;51.90;;;;;;5029533;28;20060;-53
2022/08/05 04:55:45;;;;;;;1.40;0.65;;;26.50;52.50;;;;;;5030919;28;20140;-50
2022/08/05 04:58:13;;;;;;;1.85;0.82;;;26.50;51.90;;;;;;5030756;28;20037;-55
2022/08/05 05:00:39;;;;;;;2.20;0.75;;;26.50;51.90;;;;;;5031270;28;20079;-53
2022/08/05 05:03:07;;;;;;;2.22;0.60;;;26.40;51.90;;;;;;5031945;28;20338;-51
2022/08/05 05:05:33;;;;;;;1.92;0.50;;;26.40;52.00;;;;;;5028288;28;20441;-51
2022/08/05 05:08:05;;;;;;;2.80;0.65;;;26.40;51.90;;;;;;5029985;28;20452;-54
2022/08/05 05:10:38;;;;;;;1.17;0.55;;;26.40;51.90;;;;;;5031349;28;20033;-53
2022/08/05 05:13:04;;;;;;;2.43;0.90;;;26.40;51.90;;;;;;5031943;28;20053;-53
2022/08/05 05:15:30;;;;;;;1.75;0.60;;;26.40;51.90;;;;;;5030482;28;20779;-54
2022/08/05 05:17:55;;;;;;;3.22;0.70;;;26.40;52.00;;;;;;5029879;28;20091;-54
2022/08/05 05:20:21;;;;;;;2.17;0.73;;;26.40;52.00;;;;;;5029939;28;20124;-54
2022/08/05 05:22:47;;;;;;;2.60;0.70;;;26.40;52.00;;;;;;5030596;28;20021;-51
2022/08/05 05:25:13;;;;;;;2.22;0.90;;;26.40;52.00;;;;;;5030459;28;20036;-57
2022/08/05 05:27:39;;;;;;;1.63;0.73;;;26.40;52.10;;;;;;5030004;28;20048;-51
2022/08/05 05:30:06;;;;;;;2.25;0.75;;;26.40;52.00;;;;;;5029783;28;20057;-54
2022/08/05 05:32:32;;;;;;;3.58;0.95;;;26.40;52.00;;;;;;5030842;28;20091;-53
2022/08/05 05:34:58;;;;;;;1.58;0.70;;;26.40;52.00;;;;;;5028632;28;20064;-54
2022/08/05 05:37:23;;;;;;;1.77;0.90;;;26.40;52.00;;;;;;5030303;28;20330;-55
2022/08/05 05:39:49;;;;;;;1.92;0.90;;;26.40;52.00;;;;;;5030059;28;20026;-56
2022/08/05 05:42:15;;;;;;;2.35;0.93;;;26.40;52.00;;;;;;5029950;28;20025;-54
2022/08/05 05:44:41;;;;;;;3.53;1.10;;;26.40;52.00;;;;;;5029799;28;20017;-52
2022/08/05 05:47:07;;;;;;;1.88;0.82;;;26.40;52.00;;;;;;5029828;28;20478;-54
2022/08/05 05:49:32;;;;;;;2.10;0.60;;;26.40;52.00;;;;;;5029097;28;20102;-50
2022/08/05 05:51:58;;;;;;;2.03;0.77;;;26.40;52.10;;;;;;5029684;28;20088;-52
2022/08/05 05:54:24;;;;;;;2.08;0.75;;;26.40;52.00;;;;;;5030732;28;20476;-56
2022/08/05 05:56:50;;;;;;;1.00;0.55;;;26.40;52.00;;;;;;5031216;28;20067;-55
2022/08/05 05:59:16;;;;;;;2.83;0.73;;;26.40;52.00;;;;;;5029623;28;20041;-53
2022/08/05 06:01:42;;;;;;;2.33;0.90;;;26.40;52.10;;;;;;5030205;28;20447;-56
2022/08/05 06:04:09;;;;;;;2.03;0.73;;;26.30;51.90;;;;;;5028850;28;20040;-53
2022/08/05 06:06:35;;;;;;;0.93;0.63;;;26.40;52.00;;;;;;5030834;28;20150;-52
2022/08/05 06:09:04;;;;;;;1.58;0.65;;;26.40;52.10;;;;;;5029594;28;20025;-56
2022/08/05 06:11:30;;;;;;;2.28;0.90;;;26.40;52.00;;;;;;5030075;28;20116;-52
2022/08/05 06:13:56;;;;;;;2.47;0.77;;;26.40;52.10;;;;;;5030297;28;20037;-55
2022/08/05 06:16:22;;;;;;;2.75;0.88;;;26.40;52.10;;;;;;5029543;28;20080;-56
2022/08/05 06:18:48;;;;;;;1.10;0.57;;;26.40;52.00;;;;;;5026467;28;20036;-50
2022/08/05 06:21:14;;;;;;;2.05;0.70;;;26.40;52.00;;;;;;5028836;28;20021;-57
2022/08/05 06:23:40;;;;;;;2.08;0.82;;;26.30;52.00;;;;;;5029232;28;20368;-54
2022/08/05 06:26:06;;;;;;;2.88;0.95;;;26.30;52.00;;;;;;5029781;28;20033;-59
2022/08/05 06:28:31;;;;;;;3.03;0.90;;;26.30;52.00;;;;;;5029348;28;20052;-48
2022/08/05 06:30:57;;;;;;;6.32;1.10;;;26.40;52.10;;;;;;5028921;28;20037;-50
2022/08/05 06:33:23;;;;;;;4.25;1.20;;;26.30;52.10;;;;;;5028172;28;20030;-52
2022/08/05 06:35:49;;;;;;;2.58;1.30;;;26.40;52.20;;;;;;5028692;28;20041;-53
2022/08/05 06:38:15;;;;;;;4.45;1.52;;;26.30;52.10;;;;;;5028389;28;20061;-56
2022/08/05 06:40:43;;;;;;;3.65;1.20;;;26.30;52.10;;;;;;5029378;28;20026;-54
2022/08/05 06:43:09;;;;;;;3.33;1.17;;;26.40;52.10;;;;;;5028257;28;20365;-50
2022/08/05 06:45:35;;;;;;;2.47;1.42;;;26.30;52.00;;;;;;5029187;28;20030;-52
2022/08/05 06:48:01;;;;;;;6.15;1.63;;;26.30;52.00;;;;;;5028743;28;20101;-54
2022/08/05 06:50:26;;;;;;;4.18;1.20;;;26.30;52.00;;;;;;5030456;28;20029;-53
2022/08/05 06:52:52;;;;;;;2.45;1.17;;;26.40;52.00;;;;;;5023410;28;20060;-53
2022/08/05 06:55:18;;;;;;;3.85;1.38;;;26.30;51.90;;;;;;5027384;28;20380;-51
2022/08/05 06:57:46;;;;;;;2.13;1.05;;;26.30;51.90;;;;;;5029101;28;20054;-53
2022/08/05 07:00:12;;;;;;;3.55;1.10;;;26.30;51.80;;;;;;5027830;28;20025;-51
2022/08/05 07:02:42;;;;;;;3.63;1.20;;;26.40;51.80;;;;;;5028593;28;20040;-52
2022/08/05 07:05:08;;;;;;;2.83;1.05;;;26.40;51.80;;;;;;5026708;28;20039;-54
2022/08/05 07:07:34;;;;;;;2.25;0.85;;;26.40;51.80;;;;;;5028052;28;20037;-52
2022/08/05 07:10:00;;;;;;;2.65;1.10;;;26.40;51.70;;;;;;5027666;28;20068;-54
2022/08/05 07:17:54;;;;;;;1.98;0.75;;;26.40;51.50;;;;;;5034782;28;20140;-52
2022/08/05 07:20:20;;;;;;;1.65;0.63;;;26.40;51.50;;;;;;5034654;28;20108;-54
2022/08/05 07:22:45;;;;;;;2.80;0.88;;;26.40;51.40;;;;;;5017303;28;20037;-52
2022/08/05 07:25:11;;;;;;;2.13;0.80;;;26.40;51.30;;;;;;5029314;28;20025;-51
2022/08/05 07:27:37;;;;;;;3.13;1.10;;;26.40;51.30;;;;;;5028580;28;20076;-54
2022/08/05 07:30:03;;;;;;;2.15;1.00;;;26.40;51.20;;;;;;5032444;28;20109;-54
2022/08/05 07:32:37;;;;;;;2.05;0.73;;;26.40;51.10;;;;;;5032184;28;20056;-55
2022/08/05 07:35:08;;;;;;;2.63;0.93;;;26.40;51.10;;;;;;5029754;28;20488;-54
2022/08/05 07:37:33;;;;;;;2.20;0.82;;;26.40;51.00;;;;;;5026959;28;20034;-56
2022/08/05 07:39:59;;;;;;;2.63;0.70;;;26.50;51.00;;;;;;5029496;28;20040;-56
2022/08/05 07:42:25;;;;;;;1.38;0.57;;;26.50;50.90;;;;;;5030027;28;20526;-51
2022/08/05 07:44:51;;;;;;;1.65;0.70;;;26.50;50.90;;;;;;5028671;28;20033;-56
2022/08/05 07:47:17;;;;;;;1.77;0.75;;;26.50;50.90;;;;;;5028397;28;20451;-55
2022/08/05 07:49:43;;;;;;;0.90;0.60;;;26.50;50.80;;;;;;5031994;28;20067;-58
2022/08/05 07:52:08;;;;;;;2.42;0.68;;;26.50;50.80;;;;;;5029318;28;20036;-58
2022/08/05 07:54:34;;;;;;;2.75;0.60;;;26.50;50.80;;;;;;5030828;28;20045;-58
2022/08/05 07:57:01;;;;;;;1.83;0.70;;;26.50;50.90;;;;;;5031216;28;20076;-58
2022/08/05 07:59:27;;;;;;;0.70;0.52;;;26.50;50.80;;;;;;5025964;28;20168;-56
2022/08/05 08:01:53;;;;;;;2.35;0.80;;;26.60;50.80;;;;;;5030541;28;20124;-56
2022/08/05 08:04:18;;;;;;;1.45;0.60;;;26.60;50.60;;;;;;5028350;28;20022;-59
2022/08/05 08:06:44;;;;;;;1.55;0.70;;;26.70;50.50;;;;;;5032247;28;20135;-56
2022/08/05 08:09:10;;;;;;;1.02;0.60;;;26.70;50.30;;;;;;5053243;28;20033;-56
2022/08/05 08:11:36;;;;;;;1.63;0.70;;;26.80;50.10;;;;;;5047169;28;20337;-57
2022/08/05 08:14:02;;;;;;;0.70;0.47;;;26.90;49.90;;;;;;5037076;28;20037;-55
2022/08/05 08:16:28;;;;;;;1.08;0.40;;;27.00;49.70;;;;;;5037240;28;20030;-58
2022/08/05 08:18:54;;;;;;;0.75;0.43;;;27.10;49.50;;;;;;5036972;28;20033;-53
2022/08/05 08:21:27;;;;;;;0.70;0.38;;;27.10;49.20;;;;;;5037476;28;20022;-54
2022/08/05 08:23:54;;;;;;;0.95;0.50;;;27.20;48.90;;;;;;5042105;28;20318;-59
2022/08/05 08:26:20;;;;;;;1.02;0.50;;;27.20;48.60;;;;;;5047189;28;20024;-57
2022/08/05 08:28:47;;;;;;;0.45;0.40;;;27.30;48.40;;;;;;5045597;28;20021;-56
2022/08/05 08:31:13;;;;;;;0.98;0.50;;;27.30;48.10;;;;;;5056083;28;20047;-58
2022/08/05 08:33:38;;;;;;;1.00;0.43;;;27.40;48.00;;;;;;5049695;28;20039;-54
2022/08/05 08:36:08;;;;;;;1.15;0.43;;;27.40;47.80;;;;;;5036745;28;20040;-57
2022/08/05 08:38:33;;;;;;;0.70;0.40;;;27.50;47.60;;;;;;5037332;28;20160;-56
2022/08/05 08:41:08;;;;;;;1.00;0.40;;;27.50;47.50;;;;;;5037335;28;20063;-55
2022/08/05 08:43:36;;;;;;;1.60;0.60;;;27.60;47.30;;;;;;5038063;28;20041;-56
2022/08/05 08:46:03;;;;;;;0.73;0.40;;;27.60;47.20;;;;;;5037419;28;20409;-56
2022/08/05 08:48:30;;;;;;;1.05;0.40;;;27.70;47.10;;;;;;5036534;28;20037;-56
2022/08/05 08:50:57;;;;;;;0.73;0.40;;;27.70;46.90;;;;;;5037386;28;20029;-57
2022/08/05 08:53:26;;;;;;;0.68;0.40;;;27.70;46.80;;;;;;5037017;28;20060;-56
2022/08/05 08:55:52;;;;;;;1.02;0.35;;;27.70;46.70;;;;;;5036905;28;20380;-53
2022/08/05 08:58:17;;;;;;;1.30;0.52;;;27.80;46.60;;;;;;5037367;28;20029;-55
2022/08/05 09:00:45;;;;;;;0.32;0.28;;;27.80;46.40;;;;;;5031252;28;20062;-53
2022/08/05 09:03:11;;;;;;;0.90;0.40;;;27.90;46.40;;;;;;5037508;28;20080;-56
2022/08/05 09:05:37;;;;;;;0.95;0.50;;;27.90;46.30;;;;;;5036989;28;20041;-58
2022/08/05 09:08:03;;;;;;;0.75;0.38;;;27.90;46.20;;;;;;5035696;28;20030;-57
2022/08/05 09:10:29;;;;;;;1.30;0.40;;;27.90;46.10;;;;;;5032693;28;20034;-56
2022/08/05 09:12:56;;;;;;;3.20;0.43;;;28.00;46.10;;;;;;5036550;28;20115;-61
2022/08/05 09:15:22;;;;;;;4.35;0.65;;;28.00;46.00;;;;;;5029476;28;20034;-57
2022/08/05 09:17:49;;;;;;;2.08;0.60;;;28.00;46.00;;;;;;5035490;28;20029;-59
2022/08/05 09:20:15;;;;;;;2.97;0.60;;;28.00;45.90;;;;;;5034783;28;20491;-59
2022/08/05 09:23:09;;;;;;;1.10;0.60;;;28.00;45.80;;;;;;5036797;28;20029;-59
2022/08/05 09:25:37;;;;;;;4.85;0.65;;;28.10;45.60;;;;;;5036143;28;20033;-59
2022/08/05 09:28:17;;;;;;;2.20;0.50;;;28.10;45.50;;;;;;5033931;28;20041;-55
2022/08/05 09:30:57;;;;;;;2.35;0.47;;;28.10;45.20;;;;;;5035575;28;20037;-56
2022/08/05 09:33:24;;;;;;;1.33;0.47;;;28.10;45.10;;;;;;5036418;28;20033;-57
2022/08/05 09:36:02;;;;;;;1.13;0.47;;;28.10;44.90;;;;;;5036326;28;20041;-57
2022/08/05 09:38:29;;;;;;;1.30;0.50;;;28.10;44.70;;;;;;5035909;28;20036;-59
2022/08/05 09:41:06;;;;;;;1.23;0.30;;;28.10;44.60;;;;;;5034774;28;20040;-60
2022/08/05 09:43:34;;;;;;;1.67;0.65;;;28.20;44.50;;;;;;5035154;28;20444;-55
2022/08/05 09:46:01;;;;;;;1.02;0.32;;;28.20;44.50;;;;;;5035875;28;20041;-55
2022/08/05 09:48:32;;;;;;;0.85;0.30;;;28.10;44.30;;;;;;5036273;28;20442;-56
2022/08/05 09:51:08;;;;;;;0.85;0.30;;;28.10;44.20;;;;;;5035836;28;20038;-58
2022/08/05 09:53:49;;;;;;;1.70;0.38;;;28.10;44.20;;;;;;5034997;28;20041;-58
2022/08/05 09:56:39;;;;;;;1.75;0.30;;;28.10;44.00;;;;;;5035456;28;20125;-59
2022/08/05 09:59:10;;;;;;;0.98;0.43;;;28.10;44.00;;;;;;5035173;28;20036;-58
2022/08/05 10:01:41;;;;;;;1.75;0.40;;;28.10;44.00;;;;;;5036473;28;20040;-58
2022/08/05 10:04:12;;;;;;;3.40;0.40;;;28.10;43.90;;;;;;5033498;28;20029;-60
2022/08/05 10:06:54;;;;;;;0.73;0.22;;;28.10;43.80;;;;;;5033872;28;20033;-56
2022/08/05 10:09:22;;;;;;;2.45;0.40;;;28.10;43.70;;;;;;5034876;28;20040;-60
2022/08/05 10:11:52;;;;;;;4.97;0.40;;;28.10;43.60;;;;;;5034550;28;20441;-59
2022/08/05 10:14:23;;;;;;;1.05;0.40;;;28.10;43.50;;;;;;5033768;28;20045;-56
2022/08/05 10:16:50;;;;;;;0.95;0.35;;;28.20;43.40;;;;;;5035429;28;20057;-58
2022/08/05 10:19:16;;;;;;;0.80;0.35;;;28.20;43.20;;;;;;5035707;28;20086;-59
2022/08/05 10:21:42;;;;;;;1.27;0.30;;;28.20;42.90;;;;;;5034738;28;20025;-59
2022/08/05 10:24:11;;;;;;;3.15;0.50;;;28.20;42.70;;;;;;5031647;28;20037;-56
2022/08/05 10:26:40;;;;;;;1.30;0.38;;;28.20;42.60;;;;;;5034689;28;20334;-55
2022/08/05 10:29:07;;;;;;;0.52;0.30;;;28.20;42.40;;;;;;5035155;28;20026;-59
2022/08/05 10:31:33;;;;;;;0.68;0.30;;;28.20;42.40;;;;;;5029736;28;20052;-54
2022/08/05 10:33:59;;;;;;;1.48;0.40;;;28.20;42.30;;;;;;5029742;28;20029;-53
2022/08/05 10:36:25;;;;;;;0.55;0.30;;;28.20;42.00;;;;;;5015297;28;20033;-61
2022/08/05 10:38:59;;;;;;;0.57;0.20;;;28.20;41.80;;;;;;5035266;28;20025;-58
2022/08/05 10:41:36;;;;;;;;;;;28.30;41.70;;;;;;5034773;28;20053;-56
2022/08/05 10:44:08;;;;;;;1.17;0.10;;;28.30;41.70;;;;;;5034994;28;20276;-57
2022/08/05 10:46:51;;;;;;;4.93;0.22;;;28.20;41.60;;;;;;5026643;28;20319;-59
2022/08/05 10:49:18;;;;;;;0.57;0.22;;;28.30;41.50;;;;;;5014734;28;20033;-54
2022/08/05 10:51:46;;;;;;;0.68;0.30;;;28.30;41.30;;;;;;5028901;28;20131;-57
2022/08/05 10:54:13;;;;;;;0.60;0.20;;;28.30;41.30;;;;;;5033832;28;20140;-56
2022/08/05 10:56:50;;;;;;;1.05;0.38;;;28.30;41.30;;;;;;5033999;28;20039;-56
2022/08/05 10:59:26;;;;;;;0.28;0.20;;;28.30;41.10;;;;;;5032717;28;20095;-58
2022/08/05 11:02:13;;;;;;;0.28;0.17;;;28.30;41.20;;;;;;5034135;28;20030;-55
2022/08/05 11:04:43;;;;;;;2.67;0.30;;;28.30;41.10;;;;;;5033758;28;20049;-56
2022/08/05 11:07:10;;;;;;;2.78;0.40;;;28.30;41.10;;;;;;5034708;28;20053;-58
2022/08/05 11:09:38;;;;;;;1.50;0.20;;;28.30;41.00;;;;;;5034242;28;20116;-59
2022/08/05 11:12:04;;;;;;;0.63;0.25;;;28.30;40.90;;;;;;5034391;28;20030;-58
2022/08/05 11:14:37;;;;;;;0.40;0.20;;;28.30;40.70;;;;;;5032831;28;20033;-56
2022/08/05 11:17:32;;;;;;;0.75;0.20;;;28.30;40.60;;;;;;5015890;28;20124;-57
2022/08/05 11:19:58;;;;;;;0.60;0.28;;;28.30;40.40;;;;;;5033682;28;20333;-57
2022/08/05 11:22:57;;;;;;;0.30;0.20;;;28.30;40.40;;;;;;5035197;28;20349;-59
2022/08/05 11:25:37;;;;;;;0.35;0.20;;;28.40;40.20;;;;;;4993054;28;20071;-57
2022/08/05 11:28:12;;;;;;;0.55;0.28;;;28.40;40.20;;;;;;5035806;28;20033;-56
2022/08/05 11:30:55;;;;;;;0.95;0.20;;;28.40;40.20;;;;;;5037352;28;20102;-57
2022/08/05 11:33:36;;;;;;;0.40;0.20;;;28.40;40.00;;;;;;5037168;28;20167;-57
2022/08/05 11:36:04;;;;;;;0.85;0.22;;;28.40;40.00;;;;;;5037457;28;20037;-57
2022/08/05 11:38:42;;;;;;;1.25;0.30;;;28.40;39.80;;;;;;5037144;28;20338;-58
2022/08/05 11:41:22;;;;;;;0.73;0.28;;;28.40;39.70;;;;;;5037829;28;20033;-52
2022/08/05 11:43:54;;;;;;;0.47;0.35;;;28.40;39.70;;;;;;5036586;28;20117;-55
2022/08/05 11:46:30;;;;;;;0.40;0.25;;;28.40;39.50;;;;;;5036560;28;20091;-55
2022/08/05 11:48:57;;;;;;;1.40;0.20;;;28.40;39.40;;;;;;5037292;28;20049;-59
2022/08/05 11:51:24;;;;;;;0.40;0.20;;;28.40;39.30;;;;;;5036228;28;20364;-56
2022/08/05 11:53:50;;;;;;;0.60;0.20;;;28.40;39.00;;;;;;5036488;28;20116;-59
2022/08/05 11:56:16;;;;;;;0.50;0.20;;;28.40;39.00;;;;;;5037047;28;20037;-57
2022/08/05 11:58:44;;;;;;;0.57;0.30;;;28.40;38.80;;;;;;5037703;28;20087;-56
2022/08/05 12:01:12;;;;;;;1.50;0.30;;;28.40;38.60;;;;;;5037670;28;20403;-58
2022/08/05 12:03:45;;;;;;;0.40;0.20;;;28.40;38.50;;;;;;5034547;28;20021;-60
2022/08/05 12:06:12;;;;;;;1.07;0.20;;;28.40;38.40;;;;;;5029613;28;20356;-59
2022/08/05 12:08:59;;;;;;;0.45;0.20;;;28.40;38.30;;;;;;5037167;28;20022;-59
2022/08/05 12:11:30;;;;;;;0.60;0.17;;;28.40;38.00;;;;;;5037265;28;20029;-56
2022/08/05 12:13:56;;;;;;;0.30;0.20;;;28.40;38.00;;;;;;5031461;28;20064;-56
2022/08/05 12:16:24;;;;;;;0.17;0.10;;;28.40;38.00;;;;;;5037263;28;20073;-57
2022/08/05 12:18:50;;;;;;;0.73;0.30;;;28.40;38.10;;;;;;5037154;28;20033;-58
2022/08/05 12:21:26;;;;;;;0.47;0.20;;;28.40;38.00;;;;;;5036346;28;20026;-57
2022/08/05 12:24:05;;;;;;;0.63;0.22;;;28.40;37.90;;;;;;5036485;28;20029;-59
2022/08/05 12:26:48;;;;;;;0.20;0.20;;;28.40;37.70;;;;;;5034193;28;20037;-55
2022/08/05 12:29:17;;;;;;;0.17;0.10;;;28.40;37.60;;;;;;5036485;28;20030;-58
2022/08/05 12:31:47;;;;;;;0.30;0.20;;;28.40;37.60;;;;;;5035800;28;20041;-58
2022/08/05 12:34:15;;;;;;;0.22;0.20;;;28.40;37.50;;;;;;5035343;28;20041;-58
2022/08/05 12:36:42;;;;;;;0.30;0.10;;;28.40;37.50;;;;;;5036213;28;20037;-56
2022/08/05 12:39:09;;;;;;;0.30;0.20;;;28.40;37.30;;;;;;5037098;28;20041;-55
2022/08/05 12:41:37;;;;;;;5.13;0.40;;;28.40;37.50;;;;;;5036417;28;20034;-58
2022/08/05 12:44:06;;;;;;;0.47;0.22;;;28.40;37.40;;;;;;5036923;28;20087;-57
2022/08/05 12:46:33;;;;;;;0.82;0.13;;;28.40;37.40;;;;;;5036289;28;20049;-58
2022/08/05 12:49:01;;;;;;;0.35;0.20;;;28.40;37.50;;;;;;5035859;28;20021;-58
2022/08/05 12:51:30;;;;;;;0.75;0.20;;;28.40;37.30;;;;;;5035618;28;20052;-57
2022/08/05 12:54:01;;;;;;;0.10;0.10;;;28.40;37.20;;;;;;5027165;28;20050;-56
2022/08/05 12:56:29;;;;;;;1.05;0.30;;;28.40;37.10;;;;;;5017703;28;20354;-57
2022/08/05 12:59:22;;;;;;;0.50;0.28;;;28.40;37.10;;;;;;5031808;28;20044;-60
2022/08/05 13:01:57;;;;;;;2.08;0.20;;;28.40;36.90;;;;;;5031719;28;20468;-57